sensor_id;sensor_type;location;lat;lon;timestamp;temperature;humidity
52709;DHT22;38606;52.986;6.980;2023-10-09T00:01:53;14.50;99.90
52709;DHT22;38606;52.986;6.980;2023-10-09T00:04:19;14.80;99.90
52709;DHT22;38606;52.986;6.980;2023-10-09T00:06:46;14.40;99.90
52709;DHT22;38606;52.986;6.980;2023-10-09T00:09:12;14.40;99.90
52709;DHT22;38606;52.986;6.980;2023-10-09T00:11:50;14.30;99.90
52709;DHT22;38606;52.986;6.980;2023-10-09T00:14:25;14.60;99.90
52709;DHT22;38606;52.986;6.980;2023-10-09T00:16:52;14.40;99.90
52709;DHT22;38606;52.986;6.980;2023-10-09T00:19:44;14.50;99.90
52709;DHT22;38606;52.986;6.980;2023-10-09T00:22:10;14.40;99.90
52709;DHT22;38606;52.986;6.980;2023-10-09T00:24:44;14.50;99.90
52709;DHT22;38606;52.986;6.980;2023-10-09T00:27:12;14.50;99.90
52709;DHT22;38606;52.986;6.980;2023-10-09T00:29:41;14.50;99.90
52709;DHT22;38606;52.986;6.980;2023-10-09T00:32:14;14.40;99.90
52709;DHT22;38606;52.986;6.980;2023-10-09T00:34:54;14.20;99.90
52709;DHT22;38606;52.986;6.980;2023-10-09T00:37:24;14.60;99.90
52709;DHT22;38606;52.986;6.980;2023-10-09T00:39:52;14.30;99.90
52709;DHT22;38606;52.986;6.980;2023-10-09T00:42:26;14.50;99.90
52709;DHT22;38606;52.986;6.980;2023-10-09T00:44:59;14.50;99.90
52709;DHT22;38606;52.986;6.980;2023-10-09T00:47:34;14.40;99.90
52709;DHT22;38606;52.986;6.980;2023-10-09T00:50:07;14.60;99.90
52709;DHT22;38606;52.986;6.980;2023-10-09T00:52:50;14.50;99.90
52709;DHT22;38606;52.986;6.980;2023-10-09T00:55:18;14.60;99.90
52709;DHT22;38606;52.986;6.980;2023-10-09T00:58:05;14.40;99.90
52709;DHT22;38606;52.986;6.980;2023-10-09T01:00:35;14.60;99.90
52709;DHT22;38606;52.986;6.980;2023-10-09T01:03:17;14.60;99.90
52709;DHT22;38606;52.986;6.980;2023-10-09T01:05:44;14.50;99.90
52709;DHT22;38606;52.986;6.980;2023-10-09T01:08:41;14.40;99.90
52709;DHT22;38606;52.986;6.980;2023-10-09T01:13:40;14.30;99.90
52709;DHT22;38606;52.986;6.980;2023-10-09T01:16:09;14.40;99.90
52709;DHT22;38606;52.986;6.980;2023-10-09T01:18:45;14.60;99.90
52709;DHT22;38606;52.986;6.980;2023-10-09T01:21:12;14.50;99.90
52709;DHT22;38606;52.986;6.980;2023-10-09T01:23:43;14.60;99.90
52709;DHT22;38606;52.986;6.980;2023-10-09T01:26:27;14.60;99.90
52709;DHT22;38606;52.986;6.980;2023-10-09T01:28:58;14.60;99.90
52709;DHT22;38606;52.986;6.980;2023-10-09T01:31:26;14.70;99.90
52709;DHT22;38606;52.986;6.980;2023-10-09T01:34:03;14.30;99.90
52709;DHT22;38606;52.986;6.980;2023-10-09T01:36:36;14.30;99.90
52709;DHT22;38606;52.986;6.980;2023-10-09T01:39:04;14.40;99.90
52709;DHT22;38606;52.986;6.980;2023-10-09T01:41:49;14.40;99.90
52709;DHT22;38606;52.986;6.980;2023-10-09T01:44:18;14.50;99.90
52709;DHT22;38606;52.986;6.980;2023-10-09T01:46:44;14.40;99.90
52709;DHT22;38606;52.986;6.980;2023-10-09T01:49:12;14.60;99.90
52709;DHT22;38606;52.986;6.980;2023-10-09T01:51:47;14.40;99.90
52709;DHT22;38606;52.986;6.980;2023-10-09T01:54:16;14.40;99.90
52709;DHT22;38606;52.986;6.980;2023-10-09T01:56:53;14.60;99.90
52709;DHT22;38606;52.986;6.980;2023-10-09T01:59:19;14.40;99.90
52709;DHT22;38606;52.986;6.980;2023-10-09T02:01:45;14.50;99.90
52709;DHT22;38606;52.986;6.980;2023-10-09T02:04:13;14.50;99.90
52709;DHT22;38606;52.986;6.980;2023-10-09T02:06:39;14.30;99.90
52709;DHT22;38606;52.986;6.980;2023-10-09T02:09:05;14.50;99.90
52709;DHT22;38606;52.986;6.980;2023-10-09T02:11:32;13.60;99.90
52709;DHT22;38606;52.986;6.980;2023-10-09T02:14:04;14.60;99.90
52709;DHT22;38606;52.986;6.980;2023-10-09T02:16:45;14.40;99.90
52709;DHT22;38606;52.986;6.980;2023-10-09T02:19:28;14.40;99.90
52709;DHT22;38606;52.986;6.980;2023-10-09T02:21:56;14.30;99.90
52709;DHT22;38606;52.986;6.980;2023-10-09T02:24:27;14.30;99.90
52709;DHT22;38606;52.986;6.980;2023-10-09T02:27:28;14.40;99.90
52709;DHT22;38606;52.986;6.980;2023-10-09T02:30:12;14.30;99.90
52709;DHT22;38606;52.986;6.980;2023-10-09T02:32:44;14.60;99.90
52709;DHT22;38606;52.986;6.980;2023-10-09T02:35:14;14.60;99.90
52709;DHT22;38606;52.986;6.980;2023-10-09T02:37:54;14.50;99.90
52709;DHT22;38606;52.986;6.980;2023-10-09T02:40:20;14.50;99.90
52709;DHT22;38606;52.986;6.980;2023-10-09T02:42:51;14.70;99.90
52709;DHT22;38606;52.986;6.980;2023-10-09T02:45:17;14.30;99.90
52709;DHT22;38606;52.986;6.980;2023-10-09T02:47:45;14.30;99.90
52709;DHT22;38606;52.986;6.980;2023-10-09T02:50:15;14.60;99.90
52709;DHT22;38606;52.986;6.980;2023-10-09T02:52:47;14.50;99.90
52709;DHT22;38606;52.986;6.980;2023-10-09T02:55:24;14.40;99.90
52709;DHT22;38606;52.986;6.980;2023-10-09T02:57:54;14.60;99.90
52709;DHT22;38606;52.986;6.980;2023-10-09T03:00:40;14.30;99.90
52709;DHT22;38606;52.986;6.980;2023-10-09T03:03:09;14.30;99.90
52709;DHT22;38606;52.986;6.980;2023-10-09T03:05:35;14.20;99.90
52709;DHT22;38606;52.986;6.980;2023-10-09T03:08:03;14.20;99.90
52709;DHT22;38606;52.986;6.980;2023-10-09T03:10:29;14.40;99.90
52709;DHT22;38606;52.986;6.980;2023-10-09T03:12:55;14.30;99.90
52709;DHT22;38606;52.986;6.980;2023-10-09T03:15:21;14.20;99.90
52709;DHT22;38606;52.986;6.980;2023-10-09T03:17:47;14.30;99.90
52709;DHT22;38606;52.986;6.980;2023-10-09T03:20:14;14.50;99.90
52709;DHT22;38606;52.986;6.980;2023-10-09T03:22:43;14.30;99.90
52709;DHT22;38606;52.986;6.980;2023-10-09T03:25:10;14.30;99.90
52709;DHT22;38606;52.986;6.980;2023-10-09T03:27:43;14.20;99.90
52709;DHT22;38606;52.986;6.980;2023-10-09T03:30:13;14.30;99.90
52709;DHT22;38606;52.986;6.980;2023-10-09T03:32:47;14.50;99.90
52709;DHT22;38606;52.986;6.980;2023-10-09T03:35:23;14.30;99.90
52709;DHT22;38606;52.986;6.980;2023-10-09T03:37:56;14.30;99.90
52709;DHT22;38606;52.986;6.980;2023-10-09T03:40:25;14.20;99.90
52709;DHT22;38606;52.986;6.980;2023-10-09T03:42:52;14.30;99.90
52709;DHT22;38606;52.986;6.980;2023-10-09T03:45:19;14.40;99.90
52709;DHT22;38606;52.986;6.980;2023-10-09T03:47:54;14.30;99.90
52709;DHT22;38606;52.986;6.980;2023-10-09T03:50:41;14.30;99.90
52709;DHT22;38606;52.986;6.980;2023-10-09T03:53:09;14.30;99.90
52709;DHT22;38606;52.986;6.980;2023-10-09T03:55:38;14.60;99.90
52709;DHT22;38606;52.986;6.980;2023-10-09T03:58:05;14.40;99.90
52709;DHT22;38606;52.986;6.980;2023-10-09T04:00:32;14.50;99.90
52709;DHT22;38606;52.986;6.980;2023-10-09T04:03:06;14.50;99.90
52709;DHT22;38606;52.986;6.980;2023-10-09T04:05:32;14.50;99.90
52709;DHT22;38606;52.986;6.980;2023-10-09T04:07:58;14.30;99.90
52709;DHT22;38606;52.986;6.980;2023-10-09T04:10:27;14.50;99.90
52709;DHT22;38606;52.986;6.980;2023-10-09T04:13:10;14.40;99.90
52709;DHT22;38606;52.986;6.980;2023-10-09T04:15:38;14.30;99.90
52709;DHT22;38606;52.986;6.980;2023-10-09T04:18:07;14.40;99.90
52709;DHT22;38606;52.986;6.980;2023-10-09T04:20:40;14.60;99.90
52709;DHT22;38606;52.986;6.980;2023-10-09T04:23:26;14.60;99.90
52709;DHT22;38606;52.986;6.980;2023-10-09T04:26:01;14.60;99.90
52709;DHT22;38606;52.986;6.980;2023-10-09T04:28:37;14.50;99.90
52709;DHT22;38606;52.986;6.980;2023-10-09T04:31:03;14.60;99.90
52709;DHT22;38606;52.986;6.980;2023-10-09T04:33:31;14.50;99.90
52709;DHT22;38606;52.986;6.980;2023-10-09T04:36:05;14.70;99.90
52709;DHT22;38606;52.986;6.980;2023-10-09T04:38:52;14.80;99.90
52709;DHT22;38606;52.986;6.980;2023-10-09T04:41:24;14.90;99.90
52709;DHT22;38606;52.986;6.980;2023-10-09T04:43:54;15.00;99.90
52709;DHT22;38606;52.986;6.980;2023-10-09T04:46:30;14.90;99.90
52709;DHT22;38606;52.986;6.980;2023-10-09T04:49:10;14.90;99.90
52709;DHT22;38606;52.986;6.980;2023-10-09T04:51:54;14.70;99.90
52709;DHT22;38606;52.986;6.980;2023-10-09T04:54:43;14.70;99.90
52709;DHT22;38606;52.986;6.980;2023-10-09T04:57:27;15.00;99.90
52709;DHT22;38606;52.986;6.980;2023-10-09T04:59:53;14.70;99.90
52709;DHT22;38606;52.986;6.980;2023-10-09T05:02:24;14.90;99.90
52709;DHT22;38606;52.986;6.980;2023-10-09T05:04:50;14.80;99.90
52709;DHT22;38606;52.986;6.980;2023-10-09T05:07:38;14.80;99.90
52709;DHT22;38606;52.986;6.980;2023-10-09T05:10:24;15.00;99.90
52709;DHT22;38606;52.986;6.980;2023-10-09T05:12:51;14.90;99.90
52709;DHT22;38606;52.986;6.980;2023-10-09T05:15:24;15.20;99.90
52709;DHT22;38606;52.986;6.980;2023-10-09T05:17:55;15.10;99.90
52709;DHT22;38606;52.986;6.980;2023-10-09T05:20:35;15.00;99.90
52709;DHT22;38606;52.986;6.980;2023-10-09T05:23:21;15.10;99.90
52709;DHT22;38606;52.986;6.980;2023-10-09T05:25:50;15.00;99.90
52709;DHT22;38606;52.986;6.980;2023-10-09T05:28:19;15.20;99.90
52709;DHT22;38606;52.986;6.980;2023-10-09T05:30:57;15.10;99.90
52709;DHT22;38606;52.986;6.980;2023-10-09T05:33:35;15.20;99.90
52709;DHT22;38606;52.986;6.980;2023-10-09T05:36:04;15.20;99.90
52709;DHT22;38606;52.986;6.980;2023-10-09T05:38:48;15.30;99.90
52709;DHT22;38606;52.986;6.980;2023-10-09T05:41:27;15.40;99.90
52709;DHT22;38606;52.986;6.980;2023-10-09T05:44:11;15.20;99.90
52709;DHT22;38606;52.986;6.980;2023-10-09T05:46:56;15.30;99.90
52709;DHT22;38606;52.986;6.980;2023-10-09T05:49:40;15.30;99.90
52709;DHT22;38606;52.986;6.980;2023-10-09T05:52:26;15.50;99.90
52709;DHT22;38606;52.986;6.980;2023-10-09T05:55:08;15.50;99.90
52709;DHT22;38606;52.986;6.980;2023-10-09T05:57:55;15.30;99.90
52709;DHT22;38606;52.986;6.980;2023-10-09T06:00:40;16.30;99.90
52709;DHT22;38606;52.986;6.980;2023-10-09T06:03:24;15.30;99.90
52709;DHT22;38606;52.986;6.980;2023-10-09T06:06:13;15.60;99.90
52709;DHT22;38606;52.986;6.980;2023-10-09T06:09:01;15.20;99.90
52709;DHT22;38606;52.986;6.980;2023-10-09T06:11:50;15.50;99.90
52709;DHT22;38606;52.986;6.980;2023-10-09T06:14:36;15.50;99.90
52709;DHT22;38606;52.986;6.980;2023-10-09T06:17:02;15.50;99.90
52709;DHT22;38606;52.986;6.980;2023-10-09T06:19:36;15.60;99.90
52709;DHT22;38606;52.986;6.980;2023-10-09T06:22:14;15.60;99.90
52709;DHT22;38606;52.986;6.980;2023-10-09T06:24:59;15.60;99.90
52709;DHT22;38606;52.986;6.980;2023-10-09T06:27:34;14.10;99.90
52709;DHT22;38606;52.986;6.980;2023-10-09T06:30:00;15.40;99.90
52709;DHT22;38606;52.986;6.980;2023-10-09T06:32:39;15.70;99.90
52709;DHT22;38606;52.986;6.980;2023-10-09T06:35:15;15.70;99.90
52709;DHT22;38606;52.986;6.980;2023-10-09T06:38:13;15.50;99.90
52709;DHT22;38606;52.986;6.980;2023-10-09T06:40:50;15.80;99.90
52709;DHT22;38606;52.986;6.980;2023-10-09T06:43:31;15.70;99.90
52709;DHT22;38606;52.986;6.980;2023-10-09T06:46:02;15.80;99.90
52709;DHT22;38606;52.986;6.980;2023-10-09T06:48:46;15.90;99.90
52709;DHT22;38606;52.986;6.980;2023-10-09T06:51:21;15.70;99.90
52709;DHT22;38606;52.986;6.980;2023-10-09T06:53:56;15.70;99.90
52709;DHT22;38606;52.986;6.980;2023-10-09T06:56:23;15.90;99.90
52709;DHT22;38606;52.986;6.980;2023-10-09T06:59:03;15.80;99.90
52709;DHT22;38606;52.986;6.980;2023-10-09T07:01:30;16.00;99.90
52709;DHT22;38606;52.986;6.980;2023-10-09T07:04:08;16.10;99.90
52709;DHT22;38606;52.986;6.980;2023-10-09T07:06:56;15.90;99.90
52709;DHT22;38606;52.986;6.980;2023-10-09T07:09:22;16.20;99.90
52709;DHT22;38606;52.986;6.980;2023-10-09T07:11:52;15.90;99.90
52709;DHT22;38606;52.986;6.980;2023-10-09T07:14:22;16.00;99.90
52709;DHT22;38606;52.986;6.980;2023-10-09T07:17:09;16.00;99.90
52709;DHT22;38606;52.986;6.980;2023-10-09T07:19:54;15.90;99.90
52709;DHT22;38606;52.986;6.980;2023-10-09T07:22:20;15.90;99.90
52709;DHT22;38606;52.986;6.980;2023-10-09T07:24:54;16.10;99.90
52709;DHT22;38606;52.986;6.980;2023-10-09T07:27:28;16.00;99.90
52709;DHT22;38606;52.986;6.980;2023-10-09T07:30:11;16.20;99.90
52709;DHT22;38606;52.986;6.980;2023-10-09T07:35:37;16.00;99.90
52709;DHT22;38606;52.986;6.980;2023-10-09T07:38:12;16.30;99.90
52709;DHT22;38606;52.986;6.980;2023-10-09T07:40:40;16.00;99.90
52709;DHT22;38606;52.986;6.980;2023-10-09T07:43:29;16.10;99.90
52709;DHT22;38606;52.986;6.980;2023-10-09T07:46:08;16.00;99.90
52709;DHT22;38606;52.986;6.980;2023-10-09T07:51:25;16.20;99.90
52709;DHT22;38606;52.986;6.980;2023-10-09T07:53:58;16.20;99.90
52709;DHT22;38606;52.986;6.980;2023-10-09T07:59:05;16.30;99.90
52709;DHT22;38606;52.986;6.980;2023-10-09T08:04:03;16.30;99.90
52709;DHT22;38606;52.986;6.980;2023-10-09T08:06:38;16.30;99.90
52709;DHT22;38606;52.986;6.980;2023-10-09T08:09:08;16.20;99.90
52709;DHT22;38606;52.986;6.980;2023-10-09T08:11:41;16.30;99.90
52709;DHT22;38606;52.986;6.980;2023-10-09T08:14:42;16.30;99.90
52709;DHT22;38606;52.986;6.980;2023-10-09T08:17:11;16.50;99.90
52709;DHT22;38606;52.986;6.980;2023-10-09T08:19:45;16.50;99.90
52709;DHT22;38606;52.986;6.980;2023-10-09T08:22:24;16.40;99.90
52709;DHT22;38606;52.986;6.980;2023-10-09T08:24:51;16.40;99.90
52709;DHT22;38606;52.986;6.980;2023-10-09T08:27:29;16.50;99.90
52709;DHT22;38606;52.986;6.980;2023-10-09T08:30:06;16.50;99.90
52709;DHT22;38606;52.986;6.980;2023-10-09T08:32:48;16.40;99.90
52709;DHT22;38606;52.986;6.980;2023-10-09T08:35:32;16.50;99.90
52709;DHT22;38606;52.986;6.980;2023-10-09T08:38:03;16.70;99.90
52709;DHT22;38606;52.986;6.980;2023-10-09T08:40:40;16.70;99.90
52709;DHT22;38606;52.986;6.980;2023-10-09T08:43:18;16.50;99.90
52709;DHT22;38606;52.986;6.980;2023-10-09T08:45:48;16.60;99.90
52709;DHT22;38606;52.986;6.980;2023-10-09T08:48:17;16.50;99.90
52709;DHT22;38606;52.986;6.980;2023-10-09T08:50:53;16.60;99.90
52709;DHT22;38606;52.986;6.980;2023-10-09T08:53:23;16.80;99.90
52709;DHT22;38606;52.986;6.980;2023-10-09T08:55:53;16.60;99.90
52709;DHT22;38606;52.986;6.980;2023-10-09T08:58:19;16.40;99.90
52709;DHT22;38606;52.986;6.980;2023-10-09T09:00:47;16.80;99.90
52709;DHT22;38606;52.986;6.980;2023-10-09T09:03:16;16.60;99.90
52709;DHT22;38606;52.986;6.980;2023-10-09T09:05:47;16.80;99.90
52709;DHT22;38606;52.986;6.980;2023-10-09T09:08:28;16.90;99.90
52709;DHT22;38606;52.986;6.980;2023-10-09T09:11:02;16.40;99.90
52709;DHT22;38606;52.986;6.980;2023-10-09T09:13:47;16.80;99.90
52709;DHT22;38606;52.986;6.980;2023-10-09T09:16:22;16.50;99.90
52709;DHT22;38606;52.986;6.980;2023-10-09T09:18:56;16.60;99.90
52709;DHT22;38606;52.986;6.980;2023-10-09T09:21:50;16.50;99.90
52709;DHT22;38606;52.986;6.980;2023-10-09T09:24:25;16.70;99.90
52709;DHT22;38606;52.986;6.980;2023-10-09T09:26:55;16.70;99.90
52709;DHT22;38606;52.986;6.980;2023-10-09T09:29:43;16.90;99.90
52709;DHT22;38606;52.986;6.980;2023-10-09T09:32:29;16.70;99.90
52709;DHT22;38606;52.986;6.980;2023-10-09T09:35:01;16.90;99.90
52709;DHT22;38606;52.986;6.980;2023-10-09T09:37:30;16.90;99.90
52709;DHT22;38606;52.986;6.980;2023-10-09T09:40:09;17.00;99.90
52709;DHT22;38606;52.986;6.980;2023-10-09T09:42:59;16.90;99.90
52709;DHT22;38606;52.986;6.980;2023-10-09T09:45:36;17.20;99.90
52709;DHT22;38606;52.986;6.980;2023-10-09T09:48:03;17.00;99.90
52709;DHT22;38606;52.986;6.980;2023-10-09T09:50:36;16.90;99.90
52709;DHT22;38606;52.986;6.980;2023-10-09T09:53:13;17.10;99.90
52709;DHT22;38606;52.986;6.980;2023-10-09T09:55:52;16.90;99.90
52709;DHT22;38606;52.986;6.980;2023-10-09T09:58:21;17.00;99.90
52709;DHT22;38606;52.986;6.980;2023-10-09T10:00:53;16.90;99.90
52709;DHT22;38606;52.986;6.980;2023-10-09T10:03:28;17.00;99.90
52709;DHT22;38606;52.986;6.980;2023-10-09T10:05:56;17.20;99.90
52709;DHT22;38606;52.986;6.980;2023-10-09T10:08:24;17.20;99.90
52709;DHT22;38606;52.986;6.980;2023-10-09T10:10:58;17.20;99.90
52709;DHT22;38606;52.986;6.980;2023-10-09T10:16:13;17.10;99.90
52709;DHT22;38606;52.986;6.980;2023-10-09T10:19:03;17.10;99.90
52709;DHT22;38606;52.986;6.980;2023-10-09T10:21:44;17.50;99.90
52709;DHT22;38606;52.986;6.980;2023-10-09T10:27:15;17.30;99.90
52709;DHT22;38606;52.986;6.980;2023-10-09T10:32:57;17.40;99.90
52709;DHT22;38606;52.986;6.980;2023-10-09T10:35:24;17.10;99.90
52709;DHT22;38606;52.986;6.980;2023-10-09T10:38:23;17.40;99.90
52709;DHT22;38606;52.986;6.980;2023-10-09T10:40:48;17.50;99.90
52709;DHT22;38606;52.986;6.980;2023-10-09T10:43:23;17.50;99.90
52709;DHT22;38606;52.986;6.980;2023-10-09T10:46:14;17.40;99.90
52709;DHT22;38606;52.986;6.980;2023-10-09T10:48:52;17.80;99.90
52709;DHT22;38606;52.986;6.980;2023-10-09T10:51:39;18.10;99.90
52709;DHT22;38606;52.986;6.980;2023-10-09T10:54:08;17.50;99.90
52709;DHT22;38606;52.986;6.980;2023-10-09T10:56:53;17.50;99.90
52709;DHT22;38606;52.986;6.980;2023-10-09T10:59:22;17.40;99.90
52709;DHT22;38606;52.986;6.980;2023-10-09T11:01:53;17.30;99.90
52709;DHT22;38606;52.986;6.980;2023-10-09T11:04:23;17.50;99.90
52709;DHT22;38606;52.986;6.980;2023-10-09T11:06:55;17.60;99.90
52709;DHT22;38606;52.986;6.980;2023-10-09T11:09:47;17.50;99.90
52709;DHT22;38606;52.986;6.980;2023-10-09T11:15:09;17.40;99.90
52709;DHT22;38606;52.986;6.980;2023-10-09T11:18:04;17.10;99.90
52709;DHT22;38606;52.986;6.980;2023-10-09T11:20:37;17.30;99.90
52709;DHT22;38606;52.986;6.980;2023-10-09T11:23:05;17.40;99.90
52709;DHT22;38606;52.986;6.980;2023-10-09T11:25:45;17.40;99.90
52709;DHT22;38606;52.986;6.980;2023-10-09T11:28:33;17.60;99.90
52709;DHT22;38606;52.986;6.980;2023-10-09T11:31:14;17.40;99.90
52709;DHT22;38606;52.986;6.980;2023-10-09T11:36:09;17.30;99.90
52709;DHT22;38606;52.986;6.980;2023-10-09T11:38:38;17.60;99.90
52709;DHT22;38606;52.986;6.980;2023-10-09T11:41:17;17.40;99.90
52709;DHT22;38606;52.986;6.980;2023-10-09T11:43:54;17.60;99.90
52709;DHT22;38606;52.986;6.980;2023-10-09T11:46:23;17.50;99.90
52709;DHT22;38606;52.986;6.980;2023-10-09T11:49:24;17.50;99.90
52709;DHT22;38606;52.986;6.980;2023-10-09T11:52:09;17.20;99.90
52709;DHT22;38606;52.986;6.980;2023-10-09T11:54:55;17.70;99.90
52709;DHT22;38606;52.986;6.980;2023-10-09T11:57:23;17.70;99.90
52709;DHT22;38606;52.986;6.980;2023-10-09T11:59:56;17.50;99.90
52709;DHT22;38606;52.986;6.980;2023-10-09T12:02:23;17.70;99.90
52709;DHT22;38606;52.986;6.980;2023-10-09T12:04:48;17.50;99.90
52709;DHT22;38606;52.986;6.980;2023-10-09T12:07:14;17.70;99.90
52709;DHT22;38606;52.986;6.980;2023-10-09T12:09:40;17.50;99.90
52709;DHT22;38606;52.986;6.980;2023-10-09T12:12:07;17.50;99.90
52709;DHT22;38606;52.986;6.980;2023-10-09T12:14:36;17.70;99.90
52709;DHT22;38606;52.986;6.980;2023-10-09T12:17:07;17.80;99.90
52709;DHT22;38606;52.986;6.980;2023-10-09T12:19:34;17.80;99.90
52709;DHT22;38606;52.986;6.980;2023-10-09T12:22:01;17.80;99.90
52709;DHT22;38606;52.986;6.980;2023-10-09T12:24:30;17.80;99.90
52709;DHT22;38606;52.986;6.980;2023-10-09T12:26:56;17.90;99.90
52709;DHT22;38606;52.986;6.980;2023-10-09T12:29:22;18.00;99.90
52709;DHT22;38606;52.986;6.980;2023-10-09T12:31:52;18.30;99.90
52709;DHT22;38606;52.986;6.980;2023-10-09T12:34:26;18.20;99.90
52709;DHT22;38606;52.986;6.980;2023-10-09T12:36:59;18.20;99.90
52709;DHT22;38606;52.986;6.980;2023-10-09T12:39:27;18.40;99.90
52709;DHT22;38606;52.986;6.980;2023-10-09T12:41:59;18.10;99.90
52709;DHT22;38606;52.986;6.980;2023-10-09T12:44:35;18.60;99.90
52709;DHT22;38606;52.986;6.980;2023-10-09T12:47:08;18.40;99.90
52709;DHT22;38606;52.986;6.980;2023-10-09T12:49:37;18.30;99.90
52709;DHT22;38606;52.986;6.980;2023-10-09T12:52:09;18.40;99.90
52709;DHT22;38606;52.986;6.980;2023-10-09T12:54:45;18.50;99.90
52709;DHT22;38606;52.986;6.980;2023-10-09T12:57:12;18.30;99.90
52709;DHT22;38606;52.986;6.980;2023-10-09T12:59:40;18.20;99.90
52709;DHT22;38606;52.986;6.980;2023-10-09T13:02:12;18.10;99.90
52709;DHT22;38606;52.986;6.980;2023-10-09T13:04:38;18.30;99.90
52709;DHT22;38606;52.986;6.980;2023-10-09T13:07:07;18.30;99.90
52709;DHT22;38606;52.986;6.980;2023-10-09T13:09:33;18.40;99.90
52709;DHT22;38606;52.986;6.980;2023-10-09T13:12:09;18.20;99.90
52709;DHT22;38606;52.986;6.980;2023-10-09T13:14:37;18.30;99.90
52709;DHT22;38606;52.986;6.980;2023-10-09T13:17:03;18.00;99.90
52709;DHT22;38606;52.986;6.980;2023-10-09T13:19:35;18.10;99.90
52709;DHT22;38606;52.986;6.980;2023-10-09T13:22:01;18.20;99.90
52709;DHT22;38606;52.986;6.980;2023-10-09T13:24:29;18.20;99.90
52709;DHT22;38606;52.986;6.980;2023-10-09T13:26:56;18.30;99.90
52709;DHT22;38606;52.986;6.980;2023-10-09T13:29:24;18.30;99.90
52709;DHT22;38606;52.986;6.980;2023-10-09T13:31:50;18.50;99.90
52709;DHT22;38606;52.986;6.980;2023-10-09T13:34:18;18.50;99.90
52709;DHT22;38606;52.986;6.980;2023-10-09T13:36:44;17.80;99.90
52709;DHT22;38606;52.986;6.980;2023-10-09T13:39:19;18.30;99.90
52709;DHT22;38606;52.986;6.980;2023-10-09T13:41:57;18.60;99.90
52709;DHT22;38606;52.986;6.980;2023-10-09T13:44:31;18.20;99.90
52709;DHT22;38606;52.986;6.980;2023-10-09T13:47:02;18.40;99.90
52709;DHT22;38606;52.986;6.980;2023-10-09T13:49:30;18.60;99.90
52709;DHT22;38606;52.986;6.980;2023-10-09T13:51:57;18.40;99.90
52709;DHT22;38606;52.986;6.980;2023-10-09T13:54:23;18.40;99.90
52709;DHT22;38606;52.986;6.980;2023-10-09T13:57:02;18.40;99.90
52709;DHT22;38606;52.986;6.980;2023-10-09T13:59:34;18.60;99.90
52709;DHT22;38606;52.986;6.980;2023-10-09T14:02:01;18.50;99.90
52709;DHT22;38606;52.986;6.980;2023-10-09T14:04:28;18.40;99.90
52709;DHT22;38606;52.986;6.980;2023-10-09T14:06:54;18.40;99.90
52709;DHT22;38606;52.986;6.980;2023-10-09T14:09:25;18.50;99.90
52709;DHT22;38606;52.986;6.980;2023-10-09T14:12:00;18.40;99.90
52709;DHT22;38606;52.986;6.980;2023-10-09T14:14:36;18.20;99.90
52709;DHT22;38606;52.986;6.980;2023-10-09T14:17:19;18.10;99.90
52709;DHT22;38606;52.986;6.980;2023-10-09T14:19:53;18.30;99.90
52709;DHT22;38606;52.986;6.980;2023-10-09T14:22:22;18.10;99.90
52709;DHT22;38606;52.986;6.980;2023-10-09T14:24:53;18.20;99.90
52709;DHT22;38606;52.986;6.980;2023-10-09T14:27:23;18.10;99.90
52709;DHT22;38606;52.986;6.980;2023-10-09T14:29:55;18.00;99.90
52709;DHT22;38606;52.986;6.980;2023-10-09T14:32:23;17.90;99.90
52709;DHT22;38606;52.986;6.980;2023-10-09T14:34:55;17.90;99.90
52709;DHT22;38606;52.986;6.980;2023-10-09T14:37:27;17.90;99.90
52709;DHT22;38606;52.986;6.980;2023-10-09T14:39:53;17.60;99.90
52709;DHT22;38606;52.986;6.980;2023-10-09T14:42:20;18.00;99.90
52709;DHT22;38606;52.986;6.980;2023-10-09T14:44:48;17.80;99.90
52709;DHT22;38606;52.986;6.980;2023-10-09T14:47:15;17.90;99.90
52709;DHT22;38606;52.986;6.980;2023-10-09T14:50:34;17.90;99.90
52709;DHT22;38606;52.986;6.980;2023-10-09T14:53:04;17.80;99.90
52709;DHT22;38606;52.986;6.980;2023-10-09T14:55:30;17.80;99.90
52709;DHT22;38606;52.986;6.980;2023-10-09T14:57:57;17.70;99.90
52709;DHT22;38606;52.986;6.980;2023-10-09T15:00:24;17.70;99.90
52709;DHT22;38606;52.986;6.980;2023-10-09T15:02:50;17.60;99.90
52709;DHT22;38606;52.986;6.980;2023-10-09T15:05:17;17.80;99.90
52709;DHT22;38606;52.986;6.980;2023-10-09T15:07:43;18.00;99.90
52709;DHT22;38606;52.986;6.980;2023-10-09T15:10:09;17.70;99.90
52709;DHT22;38606;52.986;6.980;2023-10-09T15:12:35;17.60;99.90
52709;DHT22;38606;52.986;6.980;2023-10-09T15:15:08;17.60;99.90
52709;DHT22;38606;52.986;6.980;2023-10-09T15:17:40;17.70;99.90
52709;DHT22;38606;52.986;6.980;2023-10-09T15:20:13;17.50;99.90
52709;DHT22;38606;52.986;6.980;2023-10-09T15:22:43;17.60;99.90
52709;DHT22;38606;52.986;6.980;2023-10-09T15:25:09;17.80;99.90
52709;DHT22;38606;52.986;6.980;2023-10-09T15:27:43;17.40;99.90
52709;DHT22;38606;52.986;6.980;2023-10-09T15:30:09;17.30;99.90
52709;DHT22;38606;52.986;6.980;2023-10-09T15:32:42;17.40;99.90
52709;DHT22;38606;52.986;6.980;2023-10-09T15:35:09;17.40;99.90
52709;DHT22;38606;52.986;6.980;2023-10-09T15:37:38;17.40;99.90
52709;DHT22;38606;52.986;6.980;2023-10-09T15:40:07;17.50;99.90
52709;DHT22;38606;52.986;6.980;2023-10-09T15:42:43;17.50;99.90
52709;DHT22;38606;52.986;6.980;2023-10-09T15:45:09;17.50;99.90
52709;DHT22;38606;52.986;6.980;2023-10-09T15:47:35;17.40;99.90
52709;DHT22;38606;52.986;6.980;2023-10-09T15:50:02;17.50;99.90
52709;DHT22;38606;52.986;6.980;2023-10-09T15:52:34;17.40;99.90
52709;DHT22;38606;52.986;6.980;2023-10-09T15:55:00;17.30;99.90
52709;DHT22;38606;52.986;6.980;2023-10-09T15:59:39;17.30;99.90
52709;DHT22;38606;52.986;6.980;2023-10-09T16:02:05;17.20;99.90
52709;DHT22;38606;52.986;6.980;2023-10-09T16:04:31;17.40;99.90
52709;DHT22;38606;52.986;6.980;2023-10-09T16:07:02;17.20;99.90
52709;DHT22;38606;52.986;6.980;2023-10-09T16:09:33;16.90;99.90
52709;DHT22;38606;52.986;6.980;2023-10-09T16:12:04;17.00;99.90
52709;DHT22;38606;52.986;6.980;2023-10-09T16:14:30;17.30;99.90
52709;DHT22;38606;52.986;6.980;2023-10-09T16:16:56;17.10;99.90
52709;DHT22;38606;52.986;6.980;2023-10-09T16:19:22;17.10;99.90
52709;DHT22;38606;52.986;6.980;2023-10-09T16:21:53;17.20;99.90
52709;DHT22;38606;52.986;6.980;2023-10-09T16:24:19;17.00;99.90
52709;DHT22;38606;52.986;6.980;2023-10-09T16:26:45;17.00;99.90
52709;DHT22;38606;52.986;6.980;2023-10-09T16:29:16;17.40;99.90
52709;DHT22;38606;52.986;6.980;2023-10-09T16:31:42;17.10;99.90
52709;DHT22;38606;52.986;6.980;2023-10-09T16:34:08;17.10;99.90
52709;DHT22;38606;52.986;6.980;2023-10-09T16:36:34;17.00;99.90
52709;DHT22;38606;52.986;6.980;2023-10-09T16:39:01;16.90;99.90